Terminal Aerodrome Forecast
Issued by NWS

Home | Current Version | Previous Version | Text Only | Print | Product List | Glossary On
Versions: 1 2 3 4 5 6 7 8 9 10 11 12 13 14 15 16 17 18 19 20 21 22
000
FTUS41 KBOX 240833 AAB
TAFFMH
TAF AMD
KFMH 240833Z 2409/2506 35014G19KT 3SM BR VCSH OVC007
     FM241500 33014G22KT 5SM BR OVC015
     FM242100 33011KT P6SM OVC025
     FM250000 32009KT P6SM OVC050=

USA.gov is the U.S. government's official web portal to all federal, state and local government web resources and services.